sensor_id;sensor_type;location;lat;lon;timestamp;P1;durP1;ratioP1;P2;durP2;ratioP2
13461;SDS011;6803;45.264;5.468;2023-10-08T00:00:33;10.90;;;5.03;;
13461;SDS011;6803;45.264;5.468;2023-10-08T00:03:09;9.23;;;4.60;;
13461;SDS011;6803;45.264;5.468;2023-10-08T00:05:41;7.97;;;4.30;;
13461;SDS011;6803;45.264;5.468;2023-10-08T00:08:14;6.47;;;4.53;;
13461;SDS011;6803;45.264;5.468;2023-10-08T00:10:45;8.57;;;4.67;;
13461;SDS011;6803;45.264;5.468;2023-10-08T00:13:16;8.00;;;3.90;;
13461;SDS011;6803;45.264;5.468;2023-10-08T00:18:25;10.40;;;4.43;;
13461;SDS011;6803;45.264;5.468;2023-10-08T00:20:56;9.80;;;4.80;;
13461;SDS011;6803;45.264;5.468;2023-10-08T00:23:29;10.30;;;4.27;;
13461;SDS011;6803;45.264;5.468;2023-10-08T00:26:01;7.00;;;4.27;;
13461;SDS011;6803;45.264;5.468;2023-10-08T00:28:32;8.60;;;4.23;;
13461;SDS011;6803;45.264;5.468;2023-10-08T00:31:03;8.55;;;4.70;;
13461;SDS011;6803;45.264;5.468;2023-10-08T00:33:35;8.23;;;4.80;;
13461;SDS011;6803;45.264;5.468;2023-10-08T00:36:06;8.13;;;4.40;;
13461;SDS011;6803;45.264;5.468;2023-10-08T00:38:47;7.20;;;4.30;;
13461;SDS011;6803;45.264;5.468;2023-10-08T00:41:20;9.00;;;4.47;;
13461;SDS011;6803;45.264;5.468;2023-10-08T00:43:50;8.73;;;5.00;;
13461;SDS011;6803;45.264;5.468;2023-10-08T00:49:02;7.12;;;5.20;;
13461;SDS011;6803;45.264;5.468;2023-10-08T00:51:37;6.97;;;4.63;;
13461;SDS011;6803;45.264;5.468;2023-10-08T00:54:08;7.80;;;4.20;;
13461;SDS011;6803;45.264;5.468;2023-10-08T00:56:45;8.23;;;4.53;;
13461;SDS011;6803;45.264;5.468;2023-10-08T00:59:19;5.97;;;4.57;;
13461;SDS011;6803;45.264;5.468;2023-10-08T01:01:52;6.13;;;4.30;;
13461;SDS011;6803;45.264;5.468;2023-10-08T01:04:24;6.37;;;4.40;;
13461;SDS011;6803;45.264;5.468;2023-10-08T01:06:56;9.60;;;4.47;;
13461;SDS011;6803;45.264;5.468;2023-10-08T01:09:29;7.33;;;4.60;;
13461;SDS011;6803;45.264;5.468;2023-10-08T01:12:12;5.40;;;4.40;;
13461;SDS011;6803;45.264;5.468;2023-10-08T01:14:45;6.80;;;5.57;;
13461;SDS011;6803;45.264;5.468;2023-10-08T01:17:17;6.83;;;5.10;;
13461;SDS011;6803;45.264;5.468;2023-10-08T01:19:50;7.90;;;5.23;;
13461;SDS011;6803;45.264;5.468;2023-10-08T01:22:24;7.73;;;4.87;;
13461;SDS011;6803;45.264;5.468;2023-10-08T01:24:57;9.73;;;5.20;;
13461;SDS011;6803;45.264;5.468;2023-10-08T01:27:30;9.83;;;5.37;;
13461;SDS011;6803;45.264;5.468;2023-10-08T01:30:03;8.30;;;4.43;;
13461;SDS011;6803;45.264;5.468;2023-10-08T01:32:38;9.70;;;5.53;;
13461;SDS011;6803;45.264;5.468;2023-10-08T01:37:50;11.03;;;5.70;;
13461;SDS011;6803;45.264;5.468;2023-10-08T01:40:22;7.50;;;5.00;;
13461;SDS011;6803;45.264;5.468;2023-10-08T01:42:53;8.80;;;5.13;;
13461;SDS011;6803;45.264;5.468;2023-10-08T01:45:27;7.47;;;5.20;;
13461;SDS011;6803;45.264;5.468;2023-10-08T01:47:58;6.50;;;5.23;;
13461;SDS011;6803;45.264;5.468;2023-10-08T01:50:29;6.70;;;4.93;;
13461;SDS011;6803;45.264;5.468;2023-10-08T01:53:01;11.13;;;5.80;;
13461;SDS011;6803;45.264;5.468;2023-10-08T01:55:35;8.23;;;5.67;;
13461;SDS011;6803;45.264;5.468;2023-10-08T01:58:16;7.73;;;5.40;;
13461;SDS011;6803;45.264;5.468;2023-10-08T02:00:49;7.00;;;5.57;;
13461;SDS011;6803;45.264;5.468;2023-10-08T02:03:20;8.93;;;5.47;;
13461;SDS011;6803;45.264;5.468;2023-10-08T02:05:51;9.87;;;5.77;;
13461;SDS011;6803;45.264;5.468;2023-10-08T02:08:23;8.67;;;5.40;;
13461;SDS011;6803;45.264;5.468;2023-10-08T02:10:55;8.13;;;4.83;;
13461;SDS011;6803;45.264;5.468;2023-10-08T02:13:25;8.80;;;5.37;;
13461;SDS011;6803;45.264;5.468;2023-10-08T02:18:36;8.40;;;5.93;;
13461;SDS011;6803;45.264;5.468;2023-10-08T02:21:07;9.40;;;5.37;;
13461;SDS011;6803;45.264;5.468;2023-10-08T02:23:38;7.00;;;5.10;;
13461;SDS011;6803;45.264;5.468;2023-10-08T02:26:09;8.80;;;5.30;;
13461;SDS011;6803;45.264;5.468;2023-10-08T02:28:41;8.10;;;5.50;;
13461;SDS011;6803;45.264;5.468;2023-10-08T02:31:11;11.90;;;5.67;;
13461;SDS011;6803;45.264;5.468;2023-10-08T02:33:42;10.27;;;5.23;;
13461;SDS011;6803;45.264;5.468;2023-10-08T02:36:12;9.27;;;5.30;;
13461;SDS011;6803;45.264;5.468;2023-10-08T02:38:43;7.33;;;5.07;;
13461;SDS011;6803;45.264;5.468;2023-10-08T02:41:16;8.83;;;5.33;;
13461;SDS011;6803;45.264;5.468;2023-10-08T02:43:46;7.87;;;5.10;;
13461;SDS011;6803;45.264;5.468;2023-10-08T02:46:16;12.23;;;5.13;;
13461;SDS011;6803;45.264;5.468;2023-10-08T02:48:47;9.03;;;4.97;;
13461;SDS011;6803;45.264;5.468;2023-10-08T02:51:19;10.17;;;5.87;;
13461;SDS011;6803;45.264;5.468;2023-10-08T02:53:49;9.33;;;5.40;;
13461;SDS011;6803;45.264;5.468;2023-10-08T02:56:20;8.40;;;5.37;;
13461;SDS011;6803;45.264;5.468;2023-10-08T02:58:51;8.50;;;5.57;;
13461;SDS011;6803;45.264;5.468;2023-10-08T03:01:23;10.07;;;5.10;;
13461;SDS011;6803;45.264;5.468;2023-10-08T03:03:53;6.70;;;5.07;;
13461;SDS011;6803;45.264;5.468;2023-10-08T03:06:25;9.27;;;6.07;;
13461;SDS011;6803;45.264;5.468;2023-10-08T03:08:57;9.97;;;5.47;;
13461;SDS011;6803;45.264;5.468;2023-10-08T03:11:30;10.93;;;5.30;;
13461;SDS011;6803;45.264;5.468;2023-10-08T03:14:02;10.27;;;5.80;;
13461;SDS011;6803;45.264;5.468;2023-10-08T03:16:34;8.23;;;5.57;;
13461;SDS011;6803;45.264;5.468;2023-10-08T03:19:05;6.30;;;5.20;;
13461;SDS011;6803;45.264;5.468;2023-10-08T03:21:36;7.43;;;5.60;;
13461;SDS011;6803;45.264;5.468;2023-10-08T03:24:18;7.97;;;5.30;;
13461;SDS011;6803;45.264;5.468;2023-10-08T03:26:58;9.03;;;5.47;;
13461;SDS011;6803;45.264;5.468;2023-10-08T03:29:34;7.67;;;5.43;;
13461;SDS011;6803;45.264;5.468;2023-10-08T03:32:07;9.53;;;5.40;;
13461;SDS011;6803;45.264;5.468;2023-10-08T03:34:44;8.67;;;5.40;;
13461;SDS011;6803;45.264;5.468;2023-10-08T03:37:15;9.27;;;5.87;;
13461;SDS011;6803;45.264;5.468;2023-10-08T03:39:52;9.53;;;5.70;;
13461;SDS011;6803;45.264;5.468;2023-10-08T03:42:30;9.87;;;5.53;;
13461;SDS011;6803;45.264;5.468;2023-10-08T03:45:04;10.20;;;6.10;;
13461;SDS011;6803;45.264;5.468;2023-10-08T03:47:40;9.10;;;6.10;;
13461;SDS011;6803;45.264;5.468;2023-10-08T03:52:51;11.90;;;6.50;;
13461;SDS011;6803;45.264;5.468;2023-10-08T03:55:23;12.27;;;6.23;;
13461;SDS011;6803;45.264;5.468;2023-10-08T03:57:55;7.63;;;5.73;;
13461;SDS011;6803;45.264;5.468;2023-10-08T04:00:25;7.57;;;5.57;;
13461;SDS011;6803;45.264;5.468;2023-10-08T04:03:00;8.70;;;6.17;;
13461;SDS011;6803;45.264;5.468;2023-10-08T04:05:33;13.63;;;5.97;;
13461;SDS011;6803;45.264;5.468;2023-10-08T04:08:12;9.83;;;6.23;;
13461;SDS011;6803;45.264;5.468;2023-10-08T04:13:27;10.53;;;5.77;;
13461;SDS011;6803;45.264;5.468;2023-10-08T04:15:58;9.20;;;5.80;;
13461;SDS011;6803;45.264;5.468;2023-10-08T04:18:30;11.10;;;6.20;;
13461;SDS011;6803;45.264;5.468;2023-10-08T04:21:04;8.80;;;5.50;;
13461;SDS011;6803;45.264;5.468;2023-10-08T04:23:36;7.93;;;5.90;;
13461;SDS011;6803;45.264;5.468;2023-10-08T04:26:07;8.00;;;5.50;;
13461;SDS011;6803;45.264;5.468;2023-10-08T04:28:38;8.70;;;5.93;;
13461;SDS011;6803;45.264;5.468;2023-10-08T04:31:09;10.67;;;6.20;;
13461;SDS011;6803;45.264;5.468;2023-10-08T04:33:48;10.53;;;6.07;;
13461;SDS011;6803;45.264;5.468;2023-10-08T04:36:19;8.60;;;5.30;;
13461;SDS011;6803;45.264;5.468;2023-10-08T04:38:50;10.97;;;5.97;;
13461;SDS011;6803;45.264;5.468;2023-10-08T04:41:22;10.97;;;6.37;;
13461;SDS011;6803;45.264;5.468;2023-10-08T04:43:54;9.00;;;5.53;;
13461;SDS011;6803;45.264;5.468;2023-10-08T04:46:25;12.73;;;5.80;;
13461;SDS011;6803;45.264;5.468;2023-10-08T04:49:10;7.90;;;5.57;;
13461;SDS011;6803;45.264;5.468;2023-10-08T04:51:42;10.17;;;5.50;;
13461;SDS011;6803;45.264;5.468;2023-10-08T04:54:13;8.70;;;6.13;;
13461;SDS011;6803;45.264;5.468;2023-10-08T04:56:44;8.67;;;5.87;;
13461;SDS011;6803;45.264;5.468;2023-10-08T04:59:17;9.47;;;6.10;;
13461;SDS011;6803;45.264;5.468;2023-10-08T05:01:50;8.97;;;6.03;;
13461;SDS011;6803;45.264;5.468;2023-10-08T05:04:32;7.13;;;5.47;;
13461;SDS011;6803;45.264;5.468;2023-10-08T05:07:04;9.13;;;6.13;;
13461;SDS011;6803;45.264;5.468;2023-10-08T05:09:51;9.70;;;5.77;;
13461;SDS011;6803;45.264;5.468;2023-10-08T05:12:33;9.10;;;6.07;;
13461;SDS011;6803;45.264;5.468;2023-10-08T05:15:07;11.03;;;6.43;;
13461;SDS011;6803;45.264;5.468;2023-10-08T05:17:52;8.00;;;5.47;;
13461;SDS011;6803;45.264;5.468;2023-10-08T05:20:26;11.03;;;5.83;;
13461;SDS011;6803;45.264;5.468;2023-10-08T05:23:10;9.17;;;5.90;;
13461;SDS011;6803;45.264;5.468;2023-10-08T05:26:04;8.00;;;5.97;;
13461;SDS011;6803;45.264;5.468;2023-10-08T05:28:39;11.77;;;5.83;;
13461;SDS011;6803;45.264;5.468;2023-10-08T05:31:16;8.00;;;5.87;;
13461;SDS011;6803;45.264;5.468;2023-10-08T05:33:52;8.30;;;5.73;;
13461;SDS011;6803;45.264;5.468;2023-10-08T05:36:29;9.97;;;6.50;;
13461;SDS011;6803;45.264;5.468;2023-10-08T05:39:02;8.20;;;5.43;;
13461;SDS011;6803;45.264;5.468;2023-10-08T05:41:34;8.03;;;5.90;;
13461;SDS011;6803;45.264;5.468;2023-10-08T05:44:09;10.93;;;6.78;;
13461;SDS011;6803;45.264;5.468;2023-10-08T05:46:44;10.07;;;6.53;;
13461;SDS011;6803;45.264;5.468;2023-10-08T05:49:21;13.20;;;6.80;;
13461;SDS011;6803;45.264;5.468;2023-10-08T05:52:01;10.23;;;6.00;;
13461;SDS011;6803;45.264;5.468;2023-10-08T05:54:42;10.10;;;6.33;;
13461;SDS011;6803;45.264;5.468;2023-10-08T05:57:17;10.37;;;6.47;;
13461;SDS011;6803;45.264;5.468;2023-10-08T05:59:54;10.13;;;6.30;;
13461;SDS011;6803;45.264;5.468;2023-10-08T06:02:44;12.53;;;6.67;;
13461;SDS011;6803;45.264;5.468;2023-10-08T06:05:22;8.87;;;6.07;;
13461;SDS011;6803;45.264;5.468;2023-10-08T06:07:54;9.50;;;5.73;;
13461;SDS011;6803;45.264;5.468;2023-10-08T06:10:27;15.47;;;6.20;;
13461;SDS011;6803;45.264;5.468;2023-10-08T06:13:12;10.67;;;6.30;;
13461;SDS011;6803;45.264;5.468;2023-10-08T06:15:45;11.97;;;5.53;;
13461;SDS011;6803;45.264;5.468;2023-10-08T06:18:19;10.80;;;6.20;;
13461;SDS011;6803;45.264;5.468;2023-10-08T06:20:53;8.83;;;6.07;;
13461;SDS011;6803;45.264;5.468;2023-10-08T06:23:26;8.40;;;5.90;;
13461;SDS011;6803;45.264;5.468;2023-10-08T06:26:00;9.13;;;5.83;;
13461;SDS011;6803;45.264;5.468;2023-10-08T06:28:36;9.30;;;6.97;;
13461;SDS011;6803;45.264;5.468;2023-10-08T06:31:08;10.37;;;6.93;;
13461;SDS011;6803;45.264;5.468;2023-10-08T06:33:41;9.67;;;6.13;;
13461;SDS011;6803;45.264;5.468;2023-10-08T06:36:13;9.30;;;6.17;;
13461;SDS011;6803;45.264;5.468;2023-10-08T06:38:44;10.40;;;6.60;;
13461;SDS011;6803;45.264;5.468;2023-10-08T06:41:17;10.07;;;6.40;;
13461;SDS011;6803;45.264;5.468;2023-10-08T06:43:49;7.67;;;6.10;;
13461;SDS011;6803;45.264;5.468;2023-10-08T06:46:21;12.67;;;6.80;;
13461;SDS011;6803;45.264;5.468;2023-10-08T06:48:54;9.37;;;6.47;;
13461;SDS011;6803;45.264;5.468;2023-10-08T06:51:24;12.13;;;6.60;;
13461;SDS011;6803;45.264;5.468;2023-10-08T06:54:05;9.63;;;6.00;;
13461;SDS011;6803;45.264;5.468;2023-10-08T06:56:38;10.10;;;6.93;;
13461;SDS011;6803;45.264;5.468;2023-10-08T06:59:10;11.67;;;6.83;;
13461;SDS011;6803;45.264;5.468;2023-10-08T07:01:42;9.33;;;6.80;;
13461;SDS011;6803;45.264;5.468;2023-10-08T07:04:15;13.13;;;6.60;;
13461;SDS011;6803;45.264;5.468;2023-10-08T07:06:48;12.60;;;6.67;;
13461;SDS011;6803;45.264;5.468;2023-10-08T07:09:19;10.23;;;6.83;;
13461;SDS011;6803;45.264;5.468;2023-10-08T07:11:58;10.43;;;7.23;;
13461;SDS011;6803;45.264;5.468;2023-10-08T07:14:30;11.37;;;6.83;;
13461;SDS011;6803;45.264;5.468;2023-10-08T07:17:02;10.07;;;6.73;;
13461;SDS011;6803;45.264;5.468;2023-10-08T07:19:34;12.60;;;6.70;;
13461;SDS011;6803;45.264;5.468;2023-10-08T07:22:11;9.40;;;6.37;;
13461;SDS011;6803;45.264;5.468;2023-10-08T07:24:48;9.93;;;6.10;;
13461;SDS011;6803;45.264;5.468;2023-10-08T07:29:59;9.53;;;6.47;;
13461;SDS011;6803;45.264;5.468;2023-10-08T07:32:31;11.07;;;6.20;;
13461;SDS011;6803;45.264;5.468;2023-10-08T07:35:05;11.23;;;5.63;;
13461;SDS011;6803;45.264;5.468;2023-10-08T07:37:45;10.87;;;6.70;;
13461;SDS011;6803;45.264;5.468;2023-10-08T07:40:15;11.10;;;5.87;;
13461;SDS011;6803;45.264;5.468;2023-10-08T07:42:48;8.90;;;5.87;;
13461;SDS011;6803;45.264;5.468;2023-10-08T07:45:19;8.70;;;5.63;;
13461;SDS011;6803;45.264;5.468;2023-10-08T07:47:50;10.10;;;6.37;;
13461;SDS011;6803;45.264;5.468;2023-10-08T07:50:22;13.00;;;6.23;;
13461;SDS011;6803;45.264;5.468;2023-10-08T07:52:55;10.73;;;6.47;;
13461;SDS011;6803;45.264;5.468;2023-10-08T07:55:25;12.07;;;6.33;;
13461;SDS011;6803;45.264;5.468;2023-10-08T07:57:56;10.83;;;6.00;;
13461;SDS011;6803;45.264;5.468;2023-10-08T08:00:26;14.63;;;5.80;;
13461;SDS011;6803;45.264;5.468;2023-10-08T08:03:07;8.07;;;5.67;;
13461;SDS011;6803;45.264;5.468;2023-10-08T08:05:39;8.53;;;4.83;;
13461;SDS011;6803;45.264;5.468;2023-10-08T08:08:11;9.33;;;5.90;;
13461;SDS011;6803;45.264;5.468;2023-10-08T08:10:45;10.17;;;5.70;;
13461;SDS011;6803;45.264;5.468;2023-10-08T08:13:15;10.03;;;5.50;;
13461;SDS011;6803;45.264;5.468;2023-10-08T08:15:48;12.33;;;5.73;;
13461;SDS011;6803;45.264;5.468;2023-10-08T08:18:19;8.37;;;4.97;;
13461;SDS011;6803;45.264;5.468;2023-10-08T08:20:51;9.50;;;5.17;;
13461;SDS011;6803;45.264;5.468;2023-10-08T08:23:22;10.20;;;5.60;;
13461;SDS011;6803;45.264;5.468;2023-10-08T08:25:53;8.87;;;5.10;;
13461;SDS011;6803;45.264;5.468;2023-10-08T08:28:25;9.50;;;5.40;;
13461;SDS011;6803;45.264;5.468;2023-10-08T08:31:01;8.90;;;5.43;;
13461;SDS011;6803;45.264;5.468;2023-10-08T08:33:34;8.50;;;5.30;;
13461;SDS011;6803;45.264;5.468;2023-10-08T08:36:16;7.13;;;5.27;;
13461;SDS011;6803;45.264;5.468;2023-10-08T08:38:48;9.53;;;5.63;;
13461;SDS011;6803;45.264;5.468;2023-10-08T08:41:19;9.93;;;5.30;;
13461;SDS011;6803;45.264;5.468;2023-10-08T08:43:51;12.17;;;5.20;;
13461;SDS011;6803;45.264;5.468;2023-10-08T08:46:30;9.43;;;6.17;;
13461;SDS011;6803;45.264;5.468;2023-10-08T08:49:03;11.03;;;5.67;;
13461;SDS011;6803;45.264;5.468;2023-10-08T08:51:36;10.17;;;5.63;;
13461;SDS011;6803;45.264;5.468;2023-10-08T08:54:08;7.33;;;5.20;;
13461;SDS011;6803;45.264;5.468;2023-10-08T08:56:40;7.30;;;4.97;;
13461;SDS011;6803;45.264;5.468;2023-10-08T08:59:12;8.80;;;5.33;;
13461;SDS011;6803;45.264;5.468;2023-10-08T09:01:45;8.23;;;4.90;;
13461;SDS011;6803;45.264;5.468;2023-10-08T09:04:18;7.87;;;4.80;;
13461;SDS011;6803;45.264;5.468;2023-10-08T09:06:59;9.53;;;5.33;;
13461;SDS011;6803;45.264;5.468;2023-10-08T09:09:32;6.00;;;4.90;;
13461;SDS011;6803;45.264;5.468;2023-10-08T09:12:05;6.07;;;4.83;;
13461;SDS011;6803;45.264;5.468;2023-10-08T09:14:38;7.23;;;4.63;;
13461;SDS011;6803;45.264;5.468;2023-10-08T09:17:09;10.33;;;4.73;;
13461;SDS011;6803;45.264;5.468;2023-10-08T09:19:41;8.73;;;5.10;;
13461;SDS011;6803;45.264;5.468;2023-10-08T09:22:11;9.03;;;4.97;;
13461;SDS011;6803;45.264;5.468;2023-10-08T09:24:44;7.97;;;4.87;;
13461;SDS011;6803;45.264;5.468;2023-10-08T09:27:18;8.13;;;5.23;;
13461;SDS011;6803;45.264;5.468;2023-10-08T09:29:51;9.63;;;5.42;;
13461;SDS011;6803;45.264;5.468;2023-10-08T09:32:24;10.43;;;5.07;;
13461;SDS011;6803;45.264;5.468;2023-10-08T09:34:55;8.17;;;5.47;;
13461;SDS011;6803;45.264;5.468;2023-10-08T09:37:27;8.03;;;5.40;;
13461;SDS011;6803;45.264;5.468;2023-10-08T09:39:58;7.30;;;5.47;;
13461;SDS011;6803;45.264;5.468;2023-10-08T09:42:32;7.33;;;5.13;;
13461;SDS011;6803;45.264;5.468;2023-10-08T09:45:05;8.53;;;5.60;;
13461;SDS011;6803;45.264;5.468;2023-10-08T09:47:38;9.90;;;4.70;;
13461;SDS011;6803;45.264;5.468;2023-10-08T09:50:11;6.87;;;5.07;;
13461;SDS011;6803;45.264;5.468;2023-10-08T09:52:46;8.77;;;5.40;;
13461;SDS011;6803;45.264;5.468;2023-10-08T09:55:18;10.20;;;5.40;;
13461;SDS011;6803;45.264;5.468;2023-10-08T09:57:49;5.97;;;4.13;;
13461;SDS011;6803;45.264;5.468;2023-10-08T10:00:19;6.60;;;4.53;;
13461;SDS011;6803;45.264;5.468;2023-10-08T10:02:51;8.43;;;4.80;;
13461;SDS011;6803;45.264;5.468;2023-10-08T10:08:03;8.10;;;5.20;;
13461;SDS011;6803;45.264;5.468;2023-10-08T10:10:36;9.43;;;5.00;;
13461;SDS011;6803;45.264;5.468;2023-10-08T10:13:09;9.87;;;5.43;;
13461;SDS011;6803;45.264;5.468;2023-10-08T10:15:41;13.27;;;6.77;;
13461;SDS011;6803;45.264;5.468;2023-10-08T10:18:14;7.60;;;4.63;;
13461;SDS011;6803;45.264;5.468;2023-10-08T10:20:52;13.00;;;5.23;;
13461;SDS011;6803;45.264;5.468;2023-10-08T10:23:38;8.17;;;4.73;;
13461;SDS011;6803;45.264;5.468;2023-10-08T10:29:20;8.13;;;4.67;;
13461;SDS011;6803;45.264;5.468;2023-10-08T10:31:52;8.70;;;4.90;;
13461;SDS011;6803;45.264;5.468;2023-10-08T10:34:26;8.43;;;5.00;;
13461;SDS011;6803;45.264;5.468;2023-10-08T10:36:58;9.97;;;5.10;;
13461;SDS011;6803;45.264;5.468;2023-10-08T10:39:33;6.80;;;4.37;;
13461;SDS011;6803;45.264;5.468;2023-10-08T10:42:05;7.77;;;4.77;;
13461;SDS011;6803;45.264;5.468;2023-10-08T10:44:38;8.47;;;4.77;;
13461;SDS011;6803;45.264;5.468;2023-10-08T10:47:09;6.83;;;4.63;;
13461;SDS011;6803;45.264;5.468;2023-10-08T10:49:55;9.00;;;4.57;;
13461;SDS011;6803;45.264;5.468;2023-10-08T10:52:41;5.77;;;4.23;;
13461;SDS011;6803;45.264;5.468;2023-10-08T10:55:20;9.20;;;4.80;;
13461;SDS011;6803;45.264;5.468;2023-10-08T10:57:53;8.70;;;5.13;;
13461;SDS011;6803;45.264;5.468;2023-10-08T11:00:27;10.40;;;5.03;;
13461;SDS011;6803;45.264;5.468;2023-10-08T11:03:18;6.43;;;4.23;;
13461;SDS011;6803;45.264;5.468;2023-10-08T11:05:53;6.67;;;4.37;;
13461;SDS011;6803;45.264;5.468;2023-10-08T11:08:29;7.07;;;4.50;;
13461;SDS011;6803;45.264;5.468;2023-10-08T11:11:03;7.50;;;4.83;;
13461;SDS011;6803;45.264;5.468;2023-10-08T11:13:34;7.17;;;4.30;;
13461;SDS011;6803;45.264;5.468;2023-10-08T11:16:08;10.10;;;4.73;;
13461;SDS011;6803;45.264;5.468;2023-10-08T11:18:43;8.90;;;4.00;;
13461;SDS011;6803;45.264;5.468;2023-10-08T11:21:17;7.33;;;4.23;;
13461;SDS011;6803;45.264;5.468;2023-10-08T11:23:52;6.20;;;4.43;;
13461;SDS011;6803;45.264;5.468;2023-10-08T11:26:26;7.40;;;4.53;;
13461;SDS011;6803;45.264;5.468;2023-10-08T11:29:01;7.80;;;4.33;;
13461;SDS011;6803;45.264;5.468;2023-10-08T11:31:33;8.33;;;3.92;;
13461;SDS011;6803;45.264;5.468;2023-10-08T11:34:05;6.65;;;3.83;;
13461;SDS011;6803;45.264;5.468;2023-10-08T11:36:37;6.00;;;4.35;;
13461;SDS011;6803;45.264;5.468;2023-10-08T11:39:17;8.55;;;3.98;;
13461;SDS011;6803;45.264;5.468;2023-10-08T11:41:57;6.60;;;4.15;;
13461;SDS011;6803;45.264;5.468;2023-10-08T11:44:32;6.55;;;4.62;;
13461;SDS011;6803;45.264;5.468;2023-10-08T11:47:05;11.28;;;4.30;;
13461;SDS011;6803;45.264;5.468;2023-10-08T11:49:41;6.42;;;3.85;;
13461;SDS011;6803;45.264;5.468;2023-10-08T11:52:17;11.47;;;5.57;;
13461;SDS011;6803;45.264;5.468;2023-10-08T11:54:49;9.10;;;4.15;;
13461;SDS011;6803;45.264;5.468;2023-10-08T11:57:21;6.37;;;4.12;;
13461;SDS011;6803;45.264;5.468;2023-10-08T11:59:53;7.45;;;3.77;;
13461;SDS011;6803;45.264;5.468;2023-10-08T12:02:25;7.58;;;3.92;;
13461;SDS011;6803;45.264;5.468;2023-10-08T12:04:57;7.55;;;4.10;;
13461;SDS011;6803;45.264;5.468;2023-10-08T12:07:28;6.83;;;4.20;;
13461;SDS011;6803;45.264;5.468;2023-10-08T12:10:00;6.40;;;4.30;;
13461;SDS011;6803;45.264;5.468;2023-10-08T12:12:30;4.62;;;3.98;;
13461;SDS011;6803;45.264;5.468;2023-10-08T12:15:04;9.68;;;4.37;;
13461;SDS011;6803;45.264;5.468;2023-10-08T12:17:37;5.25;;;3.52;;
13461;SDS011;6803;45.264;5.468;2023-10-08T12:20:08;7.80;;;4.40;;
13461;SDS011;6803;45.264;5.468;2023-10-08T12:22:51;10.23;;;3.98;;
13461;SDS011;6803;45.264;5.468;2023-10-08T12:25:23;6.33;;;4.12;;
13461;SDS011;6803;45.264;5.468;2023-10-08T12:27:54;5.55;;;3.58;;
13461;SDS011;6803;45.264;5.468;2023-10-08T12:30:25;6.00;;;4.08;;
13461;SDS011;6803;45.264;5.468;2023-10-08T12:32:57;6.28;;;3.83;;
13461;SDS011;6803;45.264;5.468;2023-10-08T12:35:29;5.53;;;3.50;;
13461;SDS011;6803;45.264;5.468;2023-10-08T12:38:00;8.35;;;3.98;;
13461;SDS011;6803;45.264;5.468;2023-10-08T12:40:32;9.38;;;5.00;;
13461;SDS011;6803;45.264;5.468;2023-10-08T12:43:14;7.72;;;4.03;;
13461;SDS011;6803;45.264;5.468;2023-10-08T12:45:47;5.12;;;3.67;;
13461;SDS011;6803;45.264;5.468;2023-10-08T12:48:20;5.90;;;3.67;;
13461;SDS011;6803;45.264;5.468;2023-10-08T12:50:54;5.72;;;4.10;;
13461;SDS011;6803;45.264;5.468;2023-10-08T12:53:26;8.35;;;4.20;;
13461;SDS011;6803;45.264;5.468;2023-10-08T12:56:03;5.33;;;4.08;;
13461;SDS011;6803;45.264;5.468;2023-10-08T12:58:36;5.90;;;4.00;;
13461;SDS011;6803;45.264;5.468;2023-10-08T13:01:09;6.22;;;3.67;;
13461;SDS011;6803;45.264;5.468;2023-10-08T13:03:41;10.08;;;4.03;;
13461;SDS011;6803;45.264;5.468;2023-10-08T13:06:14;6.05;;;4.00;;
13461;SDS011;6803;45.264;5.468;2023-10-08T13:08:50;5.92;;;3.58;;
13461;SDS011;6803;45.264;5.468;2023-10-08T13:11:22;5.67;;;3.75;;
13461;SDS011;6803;45.264;5.468;2023-10-08T13:14:10;9.35;;;4.17;;
13461;SDS011;6803;45.264;5.468;2023-10-08T13:16:42;6.58;;;3.50;;
13461;SDS011;6803;45.264;5.468;2023-10-08T13:19:13;7.05;;;4.10;;
13461;SDS011;6803;45.264;5.468;2023-10-08T13:21:46;8.65;;;4.03;;
13461;SDS011;6803;45.264;5.468;2023-10-08T13:24:18;9.25;;;3.92;;
13461;SDS011;6803;45.264;5.468;2023-10-08T13:26:51;7.83;;;4.12;;
13461;SDS011;6803;45.264;5.468;2023-10-08T13:29:22;5.75;;;3.70;;
13461;SDS011;6803;45.264;5.468;2023-10-08T13:31:54;6.30;;;3.60;;
13461;SDS011;6803;45.264;5.468;2023-10-08T13:34:25;7.00;;;4.10;;
13461;SDS011;6803;45.264;5.468;2023-10-08T13:36:55;6.78;;;3.95;;
13461;SDS011;6803;45.264;5.468;2023-10-08T13:39:26;6.97;;;3.87;;
13461;SDS011;6803;45.264;5.468;2023-10-08T13:41:57;7.00;;;3.92;;
13461;SDS011;6803;45.264;5.468;2023-10-08T13:44:29;8.83;;;3.75;;
13461;SDS011;6803;45.264;5.468;2023-10-08T13:47:00;7.62;;;3.85;;
13461;SDS011;6803;45.264;5.468;2023-10-08T13:49:32;5.85;;;3.67;;
13461;SDS011;6803;45.264;5.468;2023-10-08T13:52:02;4.97;;;3.75;;
13461;SDS011;6803;45.264;5.468;2023-10-08T13:54:34;10.05;;;4.05;;
13461;SDS011;6803;45.264;5.468;2023-10-08T13:57:07;7.62;;;4.05;;
13461;SDS011;6803;45.264;5.468;2023-10-08T13:59:39;6.35;;;4.12;;
13461;SDS011;6803;45.264;5.468;2023-10-08T14:02:10;7.58;;;4.05;;
13461;SDS011;6803;45.264;5.468;2023-10-08T14:04:43;5.75;;;3.45;;
13461;SDS011;6803;45.264;5.468;2023-10-08T14:07:15;5.80;;;3.55;;
13461;SDS011;6803;45.264;5.468;2023-10-08T14:09:46;7.75;;;3.90;;
13461;SDS011;6803;45.264;5.468;2023-10-08T14:12:18;6.95;;;4.33;;
13461;SDS011;6803;45.264;5.468;2023-10-08T14:14:50;8.58;;;3.92;;
13461;SDS011;6803;45.264;5.468;2023-10-08T14:17:22;6.08;;;3.25;;
13461;SDS011;6803;45.264;5.468;2023-10-08T14:20:10;7.28;;;4.40;;
13461;SDS011;6803;45.264;5.468;2023-10-08T14:22:42;9.55;;;4.67;;
13461;SDS011;6803;45.264;5.468;2023-10-08T14:25:14;6.12;;;3.77;;
13461;SDS011;6803;45.264;5.468;2023-10-08T14:27:46;7.62;;;4.03;;
13461;SDS011;6803;45.264;5.468;2023-10-08T14:30:20;13.87;;;4.00;;
13461;SDS011;6803;45.264;5.468;2023-10-08T14:32:56;6.17;;;4.12;;
13461;SDS011;6803;45.264;5.468;2023-10-08T14:38:06;5.75;;;4.15;;
13461;SDS011;6803;45.264;5.468;2023-10-08T14:43:34;9.73;;;3.83;;
13461;SDS011;6803;45.264;5.468;2023-10-08T14:46:05;7.78;;;3.80;;
13461;SDS011;6803;45.264;5.468;2023-10-08T14:48:37;7.10;;;3.92;;
13461;SDS011;6803;45.264;5.468;2023-10-08T14:51:08;6.58;;;3.77;;
13461;SDS011;6803;45.264;5.468;2023-10-08T14:53:41;6.60;;;3.87;;
13461;SDS011;6803;45.264;5.468;2023-10-08T14:56:12;10.08;;;4.05;;
13461;SDS011;6803;45.264;5.468;2023-10-08T14:58:44;7.60;;;3.60;;
13461;SDS011;6803;45.264;5.468;2023-10-08T15:01:15;8.10;;;4.12;;
13461;SDS011;6803;45.264;5.468;2023-10-08T15:03:47;7.07;;;3.90;;
13461;SDS011;6803;45.264;5.468;2023-10-08T15:06:18;6.00;;;3.85;;
13461;SDS011;6803;45.264;5.468;2023-10-08T15:08:49;6.00;;;4.22;;
13461;SDS011;6803;45.264;5.468;2023-10-08T15:11:20;6.22;;;3.72;;
13461;SDS011;6803;45.264;5.468;2023-10-08T15:13:50;6.35;;;4.03;;
13461;SDS011;6803;45.264;5.468;2023-10-08T15:16:23;5.83;;;3.87;;
13461;SDS011;6803;45.264;5.468;2023-10-08T15:18:54;7.73;;;4.37;;
13461;SDS011;6803;45.264;5.468;2023-10-08T15:21:24;6.63;;;4.07;;
13461;SDS011;6803;45.264;5.468;2023-10-08T15:23:55;7.60;;;4.30;;
13461;SDS011;6803;45.264;5.468;2023-10-08T15:26:27;7.43;;;4.33;;
13461;SDS011;6803;45.264;5.468;2023-10-08T15:28:57;5.87;;;3.77;;
13461;SDS011;6803;45.264;5.468;2023-10-08T15:31:29;6.10;;;4.17;;
13461;SDS011;6803;45.264;5.468;2023-10-08T15:34:00;6.70;;;4.05;;
13461;SDS011;6803;45.264;5.468;2023-10-08T15:36:32;8.00;;;4.53;;
13461;SDS011;6803;45.264;5.468;2023-10-08T15:39:03;7.55;;;4.58;;
13461;SDS011;6803;45.264;5.468;2023-10-08T15:41:33;8.55;;;3.92;;
13461;SDS011;6803;45.264;5.468;2023-10-08T15:44:04;8.28;;;4.35;;
13461;SDS011;6803;45.264;5.468;2023-10-08T15:46:35;7.07;;;3.90;;
13461;SDS011;6803;45.264;5.468;2023-10-08T15:49:05;7.83;;;4.17;;
13461;SDS011;6803;45.264;5.468;2023-10-08T15:51:38;10.77;;;4.47;;
13461;SDS011;6803;45.264;5.468;2023-10-08T15:54:08;8.47;;;4.10;;
13461;SDS011;6803;45.264;5.468;2023-10-08T15:56:39;6.43;;;4.17;;
13461;SDS011;6803;45.264;5.468;2023-10-08T15:59:10;10.23;;;4.75;;
13461;SDS011;6803;45.264;5.468;2023-10-08T16:01:40;8.53;;;3.80;;
13461;SDS011;6803;45.264;5.468;2023-10-08T16:04:13;9.43;;;4.10;;